Terminal Aerodrome Forecast
Issued by NWS

Home | Current Version | Previous Version | Text Only | Print | Product List | Glossary On
Versions: 1 2 3 4 5 6 7 8 9 10 11 12 13
000
FTUS46 KSGX 170520
TAFSNA
TAF
KSNA 170520Z 1706/1806 VRB04KT P6SM SCT025
     FM170900 VRB03KT P6SM OVC013
     FM171600 VRB04KT P6SM SCT015
     FM171900 22010KT P6SM SKC
     FM180200 VRB05KT P6SM SCT013=

USA.gov is the U.S. government's official web portal to all federal, state and local government web resources and services.